Time;durP1;ratioP1;P1;durP2;ratioP2;P2;SDS_P1;SDS_P2;PMS_P1;PMS_P2;Temp;Humidity;BMP_temperature;BMP_pressure;BME280_temperature;BME280_humidity;BME280_pressure;Samples;Min_cycle;Max_cycle;Signal;HPM_P1;HPM_P2
2022/05/31 00:02:07;;;;;;;4.88;2.75;;;;;;;;;;5111609;27;20062;-75
2022/05/31 00:04:33;;;;;;;4.95;2.85;;;;;;;;;;5100029;27;20055;-75
2022/05/31 00:06:59;;;;;;;5.30;3.00;;;;;;;;;;5117472;27;20049;-73
2022/05/31 00:09:25;;;;;;;6.68;2.72;;;;;;;;;;5116238;27;20047;-73
2022/05/31 00:11:50;;;;;;;5.07;3.00;;;;;;;;;;5099772;27;20034;-72
2022/05/31 00:14:17;;;;;;;5.30;2.80;;;;;;;;;;5117603;27;20034;-75
2022/05/31 00:16:45;;;;;;;6.53;2.95;;;;;;;;;;5100208;27;20054;-74
2022/05/31 00:19:12;;;;;;;3.58;2.42;;;;;;;;;;5116859;27;20541;-75
2022/05/31 00:22:09;;;;;;;5.32;2.92;;;;;;;;;;5120537;27;20395;-74
2022/05/31 00:24:34;;;;;;;4.30;2.50;;;;;;;;;;5114617;27;20516;-72
2022/05/31 00:27:01;;;;;;;5.65;2.85;;;;;;;;;;5100947;27;20031;-72
2022/05/31 00:29:27;;;;;;;5.07;2.53;;;;;;;;;;5116780;27;20029;-76
2022/05/31 00:31:53;;;;;;;5.55;2.90;;;;;;;;;;5112342;27;20028;-76
2022/05/31 00:34:18;;;;;;;4.72;2.70;;;;;;;;;;5110162;27;20125;-72
2022/05/31 00:36:46;;;;;;;4.43;2.80;;;;;;;;;;5092214;27;20027;-74
2022/05/31 00:39:12;;;;;;;4.53;2.75;;;;;;;;;;5099766;27;20027;-73
2022/05/31 00:41:39;;;;;;;5.25;2.70;;;;;;;;;;5096610;27;20026;-76
2022/05/31 00:44:13;;;;;;;3.80;2.60;;;;;;;;;;5120645;27;20049;-72
2022/05/31 00:46:45;;;;;;;4.57;2.80;;;;;;;;;;5096496;27;20027;-75
2022/05/31 00:49:16;;;;;;;4.87;2.77;;;;;;;;;;5098395;27;20023;-72
2022/05/31 00:51:46;;;;;;;5.03;2.70;;;;;;;;;;5118783;27;20144;-75
2022/05/31 00:54:15;;;;;;;4.13;2.65;;;;;;;;;;5100122;28;20019;-75
2022/05/31 00:56:41;;;;;;;4.97;2.92;;;;;;;;;;5117842;27;20062;-73
2022/05/31 00:59:15;;;;;;;4.75;2.95;;;;;;;;;;5113298;27;20023;-73
2022/05/31 01:01:43;;;;;;;4.65;2.80;;;;;;;;;;5120386;27;20076;-75
2022/05/31 01:04:10;;;;;;;3.80;2.25;;;;;;;;;;5097353;28;20034;-75
2022/05/31 01:06:36;;;;;;;5.82;2.90;;;;;;;;;;5115596;27;20023;-73
2022/05/31 01:09:03;;;;;;;4.05;2.45;;;;;;;;;;5096933;27;20032;-75
2022/05/31 01:11:31;;;;;;;4.30;2.60;;;;;;;;;;5112504;27;20019;-75
2022/05/31 01:13:56;;;;;;;5.80;2.83;;;;;;;;;;5118737;27;20025;-75
2022/05/31 01:16:22;;;;;;;4.60;2.88;;;;;;;;;;5119449;27;20655;-75
2022/05/31 01:18:48;;;;;;;3.50;2.60;;;;;;;;;;5102524;27;20024;-75
2022/05/31 01:21:13;;;;;;;4.38;3.00;;;;;;;;;;5107876;27;20027;-76
2022/05/31 01:23:49;;;;;;;4.38;2.83;;;;;;;;;;5094753;28;20026;-72
2022/05/31 01:26:23;;;;;;;4.43;2.72;;;;;;;;;;5118611;27;20080;-72
2022/05/31 01:29:36;;;;;;;3.95;2.67;;;;;;;;;;5114469;27;21214;-75
2022/05/31 01:32:06;;;;;;;4.43;2.83;;;;;;;;;;5032610;28;20025;-75
2022/05/31 01:34:40;;;;;;;4.20;2.70;;;;;;;;;;5108044;27;20035;-76
2022/05/31 01:37:06;;;;;;;3.72;2.60;;;;;;;;;;5098653;28;20498;-73
2022/05/31 01:39:34;;;;;;;5.15;3.08;;;;;;;;;;5096354;28;20169;-75
2022/05/31 01:42:09;;;;;;;5.93;3.03;;;;;;;;;;5099356;28;20047;-72
2022/05/31 01:44:39;;;;;;;4.28;2.45;;;;;;;;;;5120829;28;20034;-73
2022/05/31 01:47:05;;;;;;;4.97;2.75;;;;;;;;;;5118795;28;20027;-75
2022/05/31 01:49:38;;;;;;;4.05;2.90;;;;;;;;;;5098372;28;20020;-72
2022/05/31 01:52:04;;;;;;;4.13;2.70;;;;;;;;;;5113917;27;20038;-75
2022/05/31 01:54:31;;;;;;;3.40;2.58;;;;;;;;;;5115588;28;20027;-73
2022/05/31 01:57:00;;;;;;;4.38;2.85;;;;;;;;;;5104141;28;20032;-75
2022/05/31 01:59:29;;;;;;;4.28;2.67;;;;;;;;;;5116994;28;20032;-76
2022/05/31 02:01:56;;;;;;;5.43;3.28;;;;;;;;;;5104110;28;20390;-75
2022/05/31 02:04:21;;;;;;;4.60;3.00;;;;;;;;;;5118113;28;20035;-73
2022/05/31 02:06:47;;;;;;;4.65;2.75;;;;;;;;;;5118676;27;20058;-72
2022/05/31 02:09:14;;;;;;;5.45;2.90;;;;;;;;;;5124007;27;20015;-75
2022/05/31 02:11:40;;;;;;;4.18;2.78;;;;;;;;;;5117983;27;20039;-73
2022/05/31 02:14:08;;;;;;;4.25;2.90;;;;;;;;;;5117606;27;20391;-72
2022/05/31 02:16:33;;;;;;;5.60;3.03;;;;;;;;;;5101621;27;21541;-73
2022/05/31 02:21:43;;;;;;;3.55;2.45;;;;;;;;;;5120534;27;20042;-73
2022/05/31 02:24:11;;;;;;;4.63;3.00;;;;;;;;;;5103114;27;20098;-73
2022/05/31 02:26:38;;;;;;;5.00;2.83;;;;;;;;;;5119350;27;20065;-75
2022/05/31 02:29:04;;;;;;;4.05;2.90;;;;;;;;;;5118182;27;20031;-73
2022/05/31 02:31:30;;;;;;;5.90;3.05;;;;;;;;;;5109610;27;20023;-75
2022/05/31 02:33:56;;;;;;;4.63;3.13;;;;;;;;;;5118175;27;20089;-74
2022/05/31 02:36:22;;;;;;;4.70;2.90;;;;;;;;;;5126841;27;20019;-72
2022/05/31 02:38:48;;;;;;;5.35;3.42;;;;;;;;;;5122560;27;20027;-76
2022/05/31 02:41:14;;;;;;;5.80;3.40;;;;;;;;;;5115227;27;20047;-74
2022/05/31 02:43:39;;;;;;;4.80;3.53;;;;;;;;;;5117870;27;20368;-75
2022/05/31 02:46:04;;;;;;;5.40;3.42;;;;;;;;;;5119560;27;20034;-73
2022/05/31 02:48:31;;;;;;;6.80;3.70;;;;;;;;;;5122896;27;20088;-72
2022/05/31 02:50:56;;;;;;;5.10;2.95;;;;;;;;;;5117939;27;20031;-72
2022/05/31 02:53:21;;;;;;;4.93;3.22;;;;;;;;;;5118609;27;20031;-76
2022/05/31 02:55:47;;;;;;;5.22;3.47;;;;;;;;;;5122878;27;20027;-74
2022/05/31 02:58:12;;;;;;;5.65;3.20;;;;;;;;;;5100024;27;20030;-76
2022/05/31 03:00:38;;;;;;;5.43;3.35;;;;;;;;;;5113550;27;20026;-73
2022/05/31 03:03:03;;;;;;;4.45;3.08;;;;;;;;;;5117822;27;20024;-75
2022/05/31 03:05:29;;;;;;;5.82;3.30;;;;;;;;;;5116876;27;20031;-72
2022/05/31 03:07:54;;;;;;;5.95;3.20;;;;;;;;;;5118176;27;20390;-75
2022/05/31 03:10:19;;;;;;;4.82;2.75;;;;;;;;;;5099758;27;20514;-72
2022/05/31 03:12:46;;;;;;;5.57;3.05;;;;;;;;;;5124038;27;20041;-72
2022/05/31 03:15:16;;;;;;;5.25;3.03;;;;;;;;;;5098751;27;20137;-76
2022/05/31 03:17:57;;;;;;;6.55;3.38;;;;;;;;;;5093790;27;20022;-74
2022/05/31 03:20:42;;;;;;;5.28;2.97;;;;;;;;;;5097541;27;20056;-72
2022/05/31 03:23:17;;;;;;;4.90;2.88;;;;;;;;;;5116513;27;20019;-72
2022/05/31 03:25:45;;;;;;;4.80;3.15;;;;;;;;;;5098933;27;20062;-72
2022/05/31 03:28:12;;;;;;;6.38;3.63;;;;;;;;;;5120082;27;20079;-73
2022/05/31 03:30:38;;;;;;;5.03;3.35;;;;;;;;;;5116053;27;20023;-74
2022/05/31 03:33:07;;;;;;;5.80;3.30;;;;;;;;;;5123345;27;20103;-72
2022/05/31 03:35:32;;;;;;;4.78;3.30;;;;;;;;;;5124468;27;20023;-72
2022/05/31 03:37:57;;;;;;;5.80;3.55;;;;;;;;;;5117975;27;20166;-76
2022/05/31 03:43:07;;;;;;;7.13;3.70;;;;;;;;;;5124516;27;20832;-74
2022/05/31 03:45:38;;;;;;;5.45;3.80;;;;;;;;;;5121896;27;20035;-76
2022/05/31 03:48:04;;;;;;;4.93;3.58;;;;;;;;;;5097777;27;20119;-75
2022/05/31 03:50:30;;;;;;;5.75;3.83;;;;;;;;;;5116599;27;20501;-75
2022/05/31 03:52:55;;;;;;;6.38;3.97;;;;;;;;;;5112807;27;20047;-73
2022/05/31 03:55:21;;;;;;;4.78;3.60;;;;;;;;;;5095996;27;20535;-75
2022/05/31 03:57:48;;;;;;;6.10;3.83;;;;;;;;;;5114023;27;20072;-73
2022/05/31 04:00:15;;;;;;;6.38;3.67;;;;;;;;;;5114533;27;20030;-75
2022/05/31 04:02:40;;;;;;;6.70;3.92;;;;;;;;;;5118323;27;20022;-75
2022/05/31 04:05:06;;;;;;;6.43;3.90;;;;;;;;;;5119393;27;20030;-75
2022/05/31 04:07:32;;;;;;;6.65;3.92;;;;;;;;;;5115589;27;20019;-75
2022/05/31 04:09:58;;;;;;;5.65;3.55;;;;;;;;;;5098755;27;20505;-73
2022/05/31 04:12:23;;;;;;;7.43;3.53;;;;;;;;;;5098295;27;20024;-73
2022/05/31 04:14:48;;;;;;;4.90;3.15;;;;;;;;;;5095282;27;20118;-76
2022/05/31 04:17:14;;;;;;;6.47;4.00;;;;;;;;;;5112043;27;20023;-73
2022/05/31 04:19:39;;;;;;;7.32;3.75;;;;;;;;;;5114169;27;20042;-73
2022/05/31 04:22:05;;;;;;;6.95;4.28;;;;;;;;;;5114947;27;20022;-73
2022/05/31 04:24:30;;;;;;;6.32;4.00;;;;;;;;;;5093730;27;20035;-72
2022/05/31 04:26:55;;;;;;;6.65;4.15;;;;;;;;;;5114953;27;20023;-73
2022/05/31 04:29:20;;;;;;;6.65;3.75;;;;;;;;;;5097977;28;20031;-75
2022/05/31 04:31:48;;;;;;;6.50;4.60;;;;;;;;;;5119225;27;20039;-73
2022/05/31 04:34:14;;;;;;;5.55;3.75;;;;;;;;;;5114107;27;20047;-73
2022/05/31 04:36:39;;;;;;;7.47;3.92;;;;;;;;;;5110688;27;20026;-75
2022/05/31 04:39:05;;;;;;;5.75;4.05;;;;;;;;;;5118303;27;20546;-76
2022/05/31 04:41:31;;;;;;;6.57;4.35;;;;;;;;;;5090141;27;20034;-73
2022/05/31 04:43:59;;;;;;;7.22;4.22;;;;;;;;;;5111304;27;20085;-75
2022/05/31 04:46:27;;;;;;;5.85;3.92;;;;;;;;;;5113165;27;20027;-76
2022/05/31 04:48:54;;;;;;;5.80;3.58;;;;;;;;;;5108571;27;20031;-77
2022/05/31 04:51:20;;;;;;;5.63;4.40;;;;;;;;;;5114739;27;20467;-73
2022/05/31 04:53:45;;;;;;;7.68;4.30;;;;;;;;;;5099900;27;20023;-73
2022/05/31 04:56:13;;;;;;;7.75;4.75;;;;;;;;;;5102480;27;20026;-76
2022/05/31 04:58:39;;;;;;;6.57;4.40;;;;;;;;;;5112653;27;20030;-77
2022/05/31 05:01:07;;;;;;;7.50;4.30;;;;;;;;;;5093262;27;20421;-73
2022/05/31 05:03:34;;;;;;;7.85;4.55;;;;;;;;;;5110820;27;20482;-75
2022/05/31 05:06:06;;;;;;;5.82;4.30;;;;;;;;;;5114011;27;20163;-73
2022/05/31 05:08:32;;;;;;;6.72;4.38;;;;;;;;;;5109816;27;20039;-73
2022/05/31 05:11:03;;;;;;;7.28;4.47;;;;;;;;;;5103915;27;20049;-76
2022/05/31 05:13:29;;;;;;;7.57;4.85;;;;;;;;;;5111346;27;20034;-77
2022/05/31 05:15:55;;;;;;;7.57;5.03;;;;;;;;;;5094415;28;20024;-76
2022/05/31 05:18:22;;;;;;;10.30;6.18;;;;;;;;;;5114727;27;20075;-76
2022/05/31 05:20:47;;;;;;;6.93;4.85;;;;;;;;;;5112694;27;20042;-76
2022/05/31 05:23:13;;;;;;;9.50;5.57;;;;;;;;;;5118965;27;20478;-76
2022/05/31 05:25:39;;;;;;;7.72;5.10;;;;;;;;;;5098475;28;20027;-75
2022/05/31 05:30:38;;;;;;;13.95;6.28;;;;;;;;;;5100675;27;20501;-75
2022/05/31 05:30:50;;;;;;;8.75;5.78;;;;;;;;;;5115970;27;20030;-76
2022/05/31 05:33:15;;;;;;;7.75;6.18;;;;;;;;;;5114209;27;20023;-74
2022/05/31 05:35:41;;;;;;;7.80;5.40;;;;;;;;;;5114443;27;20065;-75
2022/05/31 05:38:07;;;;;;;8.85;6.22;;;;;;;;;;5088514;28;20061;-73
2022/05/31 05:40:33;;;;;;;10.73;6.15;;;;;;;;;;5095226;27;20472;-73
2022/05/31 05:42:59;;;;;;;9.13;5.82;;;;;;;;;;5117267;27;20027;-75
2022/05/31 05:45:24;;;;;;;11.30;6.68;;;;;;;;;;5117793;27;20483;-75
2022/05/31 05:47:50;;;;;;;9.18;5.93;;;;;;;;;;5121857;27;20111;-74
2022/05/31 05:50:15;;;;;;;11.15;6.28;;;;;;;;;;5119581;27;20064;-75
2022/05/31 05:52:40;;;;;;;9.88;6.03;;;;;;;;;;5126075;27;20029;-74
2022/05/31 05:55:06;;;;;;;7.85;5.75;;;;;;;;;;5121210;27;20390;-76
2022/05/31 05:57:32;;;;;;;11.68;6.72;;;;;;;;;;5123959;27;20023;-75
2022/05/31 05:59:57;;;;;;;10.13;6.93;;;;;;;;;;5122266;27;20027;-73
2022/05/31 06:02:29;;;;;;;13.55;6.93;;;;;;;;;;5101607;27;20196;-73
2022/05/31 06:05:07;;;;;;;11.35;6.85;;;;;;;;;;5122406;27;20027;-74
2022/05/31 06:07:37;;;;;;;10.57;6.90;;;;;;;;;;5118953;27;20379;-76
2022/05/31 06:10:25;;;;;;;10.15;6.57;;;;;;;;;;5123586;27;20011;-73
2022/05/31 06:12:56;;;;;;;10.27;6.90;;;;;;;;;;5116753;27;20487;-73
2022/05/31 06:15:27;;;;;;;13.05;7.00;;;;;;;;;;5106772;27;20026;-76
2022/05/31 06:17:55;;;;;;;9.38;6.90;;;;;;;;;;5106573;27;20948;-75
2022/05/31 06:20:21;;;;;;;9.93;6.75;;;;;;;;;;5123886;27;20068;-73
2022/05/31 06:22:47;;;;;;;11.45;6.90;;;;;;;;;;5118829;27;20031;-76
2022/05/31 06:25:15;;;;;;;9.10;6.38;;;;;;;;;;5103050;27;20046;-73
2022/05/31 06:27:40;;;;;;;10.27;6.78;;;;;;;;;;5111429;27;20015;-73
2022/05/31 06:30:06;;;;;;;10.70;6.72;;;;;;;;;;5124591;27;20071;-75
2022/05/31 06:32:32;;;;;;;9.93;6.68;;;;;;;;;;5097659;27;20023;-73
2022/05/31 06:34:57;;;;;;;8.27;6.20;;;;;;;;;;5124092;27;20131;-76
2022/05/31 06:37:22;;;;;;;11.10;6.70;;;;;;;;;;5117133;27;20526;-75
2022/05/31 06:39:48;;;;;;;12.02;7.25;;;;;;;;;;5119563;27;20027;-76
2022/05/31 06:42:13;;;;;;;11.55;7.05;;;;;;;;;;5100170;27;20030;-73
2022/05/31 06:44:41;;;;;;;12.70;7.20;;;;;;;;;;5125772;27;20030;-75
2022/05/31 06:47:07;;;;;;;9.73;6.55;;;;;;;;;;5109203;27;20038;-73
2022/05/31 06:49:33;;;;;;;9.98;6.47;;;;;;;;;;5126744;27;20019;-73
2022/05/31 06:57:33;;;;;;;8.93;5.70;;;;;;;;;;5119986;27;20070;-73
2022/05/31 06:59:59;;;;;;;9.57;6.10;;;;;;;;;;5115591;27;20107;-74
2022/05/31 07:02:25;;;;;;;9.43;6.07;;;;;;;;;;5121863;27;20114;-75
2022/05/31 07:04:51;;;;;;;10.15;6.20;;;;;;;;;;5125886;27;20035;-76
2022/05/31 07:07:16;;;;;;;11.93;6.47;;;;;;;;;;5116043;27;20383;-72
2022/05/31 07:09:41;;;;;;;8.63;6.43;;;;;;;;;;5106315;27;20499;-73
2022/05/31 07:12:07;;;;;;;8.90;5.97;;;;;;;;;;5116540;27;20043;-76
2022/05/31 07:14:32;;;;;;;10.27;6.35;;;;;;;;;;5120678;27;20564;-76
2022/05/31 07:16:57;;;;;;;9.30;5.85;;;;;;;;;;5120747;27;20034;-72
2022/05/31 07:19:23;;;;;;;9.50;6.28;;;;;;;;;;5101159;27;20076;-73
2022/05/31 07:21:48;;;;;;;8.82;6.03;;;;;;;;;;5117029;27;20091;-73
2022/05/31 07:24:13;;;;;;;9.02;5.85;;;;;;;;;;5114912;27;20077;-72
2022/05/31 07:26:39;;;;;;;11.48;6.18;;;;;;;;;;5120046;27;20064;-73
2022/05/31 07:29:05;;;;;;;9.68;6.30;;;;;;;;;;5098340;27;20106;-74
2022/05/31 07:31:30;;;;;;;11.10;5.72;;;;;;;;;;5117809;27;20125;-76
2022/05/31 07:33:58;;;;;;;9.77;6.10;;;;;;;;;;5097011;27;20043;-73
2022/05/31 07:36:23;;;;;;;8.82;5.43;;;;;;;;;;5098080;27;20390;-76
2022/05/31 07:38:49;;;;;;;8.75;5.68;;;;;;;;;;5114177;27;20043;-76
2022/05/31 07:41:14;;;;;;;7.47;5.55;;;;;;;;;;5102447;27;20268;-75
2022/05/31 07:43:39;;;;;;;6.22;4.47;;;;;;;;;;5129696;27;20023;-73
2022/05/31 07:46:10;;;;;;;6.80;4.80;;;;;;;;;;5118068;27;20118;-75
2022/05/31 07:48:37;;;;;;;9.35;4.75;;;;;;;;;;5117219;27;20023;-75
2022/05/31 07:51:05;;;;;;;8.40;4.60;;;;;;;;;;5096000;27;20122;-75
2022/05/31 07:53:31;;;;;;;10.00;4.72;;;;;;;;;;5100170;27;20451;-73
2022/05/31 07:56:00;;;;;;;7.72;4.93;;;;;;;;;;5098872;27;20027;-76
2022/05/31 07:58:31;;;;;;;8.25;4.93;;;;;;;;;;5111166;27;20042;-72
2022/05/31 08:00:57;;;;;;;6.80;4.55;;;;;;;;;;5116783;27;20471;-72
2022/05/31 08:03:23;;;;;;;7.13;4.60;;;;;;;;;;5116970;27;20057;-75
2022/05/31 08:05:48;;;;;;;7.82;4.72;;;;;;;;;;5110491;27;20062;-72
2022/05/31 08:08:13;;;;;;;9.65;4.70;;;;;;;;;;5113552;27;20024;-74
2022/05/31 08:10:39;;;;;;;8.85;4.55;;;;;;;;;;5103361;27;20023;-75
2022/05/31 08:13:05;;;;;;;7.25;4.45;;;;;;;;;;5122496;27;20035;-72
2022/05/31 08:15:30;;;;;;;6.40;4.45;;;;;;;;;;5117201;27;20084;-76
2022/05/31 08:17:55;;;;;;;6.40;4.80;;;;;;;;;;5125856;27;20040;-75
2022/05/31 08:20:21;;;;;;;9.30;4.97;;;;;;;;;;5118347;27;20029;-74
2022/05/31 08:22:48;;;;;;;7.85;5.10;;;;;;;;;;5119870;27;20035;-73
2022/05/31 08:25:13;;;;;;;7.38;4.32;;;;;;;;;;5117924;27;20031;-73
2022/05/31 08:27:39;;;;;;;7.90;4.88;;;;;;;;;;5118157;27;20066;-75
2022/05/31 08:30:06;;;;;;;6.63;4.50;;;;;;;;;;5106970;27;20027;-75
2022/05/31 08:32:34;;;;;;;6.55;4.90;;;;;;;;;;5103671;27;20023;-75
2022/05/31 08:35:00;;;;;;;7.88;4.50;;;;;;;;;;5123815;27;20476;-75
2022/05/31 08:37:25;;;;;;;5.43;3.80;;;;;;;;;;5125352;27;20090;-75
2022/05/31 08:39:51;;;;;;;6.28;4.22;;;;;;;;;;5114719;27;20031;-75
2022/05/31 08:42:22;;;;;;;7.57;4.30;;;;;;;;;;5105579;27;20056;-77
2022/05/31 08:45:00;;;;;;;6.15;3.90;;;;;;;;;;5123318;27;20035;-73
2022/05/31 08:47:36;;;;;;;4.80;3.25;;;;;;;;;;5119653;27;20077;-72
2022/05/31 08:53:13;;;;;;;5.93;3.30;;;;;;;;;;5126298;27;20136;-73
2022/05/31 08:59:12;;;;;;;5.35;3.60;;;;;;;;;;5072260;27;20036;-75
2022/05/31 09:01:54;;;;;;;5.45;3.53;;;;;;;;;;5116766;27;20080;-76
2022/05/31 09:04:27;;;;;;;5.40;3.55;;;;;;;;;;5122813;27;20030;-73
2022/05/31 09:07:02;;;;;;;5.28;3.50;;;;;;;;;;5120213;27;20031;-75
2022/05/31 09:09:38;;;;;;;4.88;3.50;;;;;;;;;;5122283;27;20547;-74
2022/05/31 09:12:19;;;;;;;6.50;4.22;;;;;;;;;;5108270;27;20505;-73
2022/05/31 09:14:56;;;;;;;5.93;3.50;;;;;;;;;;5125899;27;20031;-75
2022/05/31 09:18:04;;;;;;;6.32;3.53;;;;;;;;;;5118917;27;20031;-73
2022/05/31 09:20:39;;;;;;;5.75;3.45;;;;;;;;;;5063839;28;20045;-73
2022/05/31 09:23:06;;;;;;;5.28;3.45;;;;;;;;;;5108298;27;20394;-73
2022/05/31 09:25:39;;;;;;;6.18;3.65;;;;;;;;;;5113917;27;20467;-76
2022/05/31 09:28:15;;;;;;;5.50;3.72;;;;;;;;;;5121704;27;20027;-75
2022/05/31 09:30:43;;;;;;;5.50;3.80;;;;;;;;;;5121144;27;20024;-76
2022/05/31 09:33:40;;;;;;;6.93;4.00;;;;;;;;;;5114323;28;20049;-76
2022/05/31 09:36:48;;;;;;;5.95;4.03;;;;;;;;;;5100242;27;20040;-75
2022/05/31 09:39:21;;;;;;;5.85;3.80;;;;;;;;;;5111177;28;20039;-72
2022/05/31 09:41:53;;;;;;;;;;;;;;;;;;5115018;28;20515;-73
2022/05/31 09:44:31;;;;;;;5.88;3.95;;;;;;;;;;5122309;28;20010;-75
2022/05/31 09:47:10;;;;;;;6.38;3.70;;;;;;;;;;5122551;28;20031;-76
2022/05/31 09:49:45;;;;;;;6.13;3.88;;;;;;;;;;5114332;28;20034;-75
2022/05/31 09:52:16;;;;;;;7.18;3.97;;;;;;;;;;5119946;27;20109;-75
2022/05/31 09:57:53;;;;;;;5.50;3.53;;;;;;;;;;5118065;28;20488;-74
2022/05/31 10:00:20;;;;;;;5.63;3.42;;;;;;;;;;5113781;28;20034;-73
2022/05/31 10:03:10;;;;;;;4.68;2.95;;;;;;;;;;5101610;28;20043;-75
2022/05/31 10:05:37;;;;;;;4.10;2.35;;;;;;;;;;5112059;28;20030;-75
2022/05/31 10:08:03;;;;;;;5.20;3.33;;;;;;;;;;5106366;28;20076;-72
2022/05/31 10:10:33;;;;;;;5.63;3.30;;;;;;;;;;5100522;28;20101;-73
2022/05/31 10:13:09;;;;;;;8.23;3.30;;;;;;;;;;5102878;28;20731;-75
2022/05/31 10:15:44;;;;;;;4.95;3.33;;;;;;;;;;5114000;28;20028;-72
2022/05/31 10:18:23;;;;;;;6.75;3.25;;;;;;;;;;5107617;28;20497;-72
2022/05/31 10:21:04;;;;;;;4.60;2.97;;;;;;;;;;5125465;28;20387;-75
2022/05/31 10:23:43;;;;;;;4.80;3.20;;;;;;;;;;5100786;28;20504;-76
2022/05/31 10:26:23;;;;;;;5.70;3.50;;;;;;;;;;5113247;28;20374;-75
2022/05/31 10:28:56;;;;;;;5.80;3.80;;;;;;;;;;5106687;27;20042;-72
2022/05/31 10:31:36;;;;;;;5.95;3.50;;;;;;;;;;5121049;27;20042;-75
2022/05/31 10:34:24;;;;;;;5.38;3.58;;;;;;;;;;5102849;27;20061;-73
2022/05/31 10:36:55;;;;;;;7.50;3.50;;;;;;;;;;5129854;27;20444;-76
2022/05/31 10:39:25;;;;;;;6.15;3.75;;;;;;;;;;5123573;27;20072;-75
2022/05/31 10:41:54;;;;;;;6.88;3.65;;;;;;;;;;5123092;27;20070;-76
2022/05/31 10:44:35;;;;;;;4.88;3.28;;;;;;;;;;5128449;27;20027;-73
2022/05/31 10:47:09;;;;;;;6.55;3.22;;;;;;;;;;5107196;27;20034;-75
2022/05/31 10:49:35;;;;;;;5.40;3.60;;;;;;;;;;5113896;27;22556;-75
2022/05/31 10:52:19;;;;;;;4.82;3.42;;;;;;;;;;5119315;27;20066;-72
2022/05/31 10:55:07;;;;;;;6.38;3.78;;;;;;;;;;5107599;27;20054;-75
2022/05/31 10:58:11;;;;;;;5.30;3.53;;;;;;;;;;5116311;27;20406;-74
2022/05/31 11:00:55;;;;;;;5.40;3.78;;;;;;;;;;5042682;28;20063;-72
2022/05/31 11:03:36;;;;;;;5.47;3.28;;;;;;;;;;5043950;28;20060;-76
2022/05/31 11:06:18;;;;;;;5.47;2.92;;;;;;;;;;5091066;27;20368;-74
2022/05/31 11:11:59;;;;;;;4.60;3.50;;;;;;;;;;5109901;27;20147;-73
2022/05/31 11:14:37;;;;;;;5.95;3.30;;;;;;;;;;5105626;27;20034;-74
2022/05/31 11:17:10;;;;;;;5.28;3.30;;;;;;;;;;5116506;27;20077;-75
2022/05/31 11:19:36;;;;;;;;;;;;;;;;;;5111297;27;20092;-74
2022/05/31 11:22:17;;;;;;;6.65;3.50;;;;;;;;;;5115057;27;19911;-72
2022/05/31 11:25:07;;;;;;;4.47;2.80;;;;;;;;;;5117405;27;20031;-72
2022/05/31 11:27:57;;;;;;;4.85;3.22;;;;;;;;;;5115222;27;20034;-75
2022/05/31 11:30:41;;;;;;;6.75;3.00;;;;;;;;;;5113998;27;20041;-76
2022/05/31 11:33:16;;;;;;;5.85;3.05;;;;;;;;;;5114116;27;20543;-75
2022/05/31 11:36:00;;;;;;;4.20;2.85;;;;;;;;;;5125323;27;20076;-75
2022/05/31 11:38:51;;;;;;;5.22;3.33;;;;;;;;;;5118584;27;20035;-76
2022/05/31 11:41:26;;;;;;;5.18;3.47;;;;;;;;;;5129209;27;20026;-72
2022/05/31 11:44:23;;;;;;;5.50;3.65;;;;;;;;;;5122717;27;20023;-72
2022/05/31 11:47:13;;;;;;;5.47;2.88;;;;;;;;;;5121367;27;20035;-76
2022/05/31 11:50:16;;;;;;;4.53;2.70;;;;;;;;;;5122183;27;20030;-72
2022/05/31 11:53:06;;;;;;;6.60;3.07;;;;;;;;;;5122676;27;20031;-76
2022/05/31 11:55:57;;;;;;;5.18;3.25;;;;;;;;;;5115798;27;20286;-72
2022/05/31 11:58:34;;;;;;;4.45;3.00;;;;;;;;;;5102689;27;20034;-76
2022/05/31 12:01:23;;;;;;;3.95;2.60;;;;;;;;;;5106382;27;20519;-73
2022/05/31 12:04:23;;;;;;;5.03;2.70;;;;;;;;;;5117284;27;20092;-72
2022/05/31 12:07:04;;;;;;;5.55;2.97;;;;;;;;;;5118475;27;20027;-75
2022/05/31 12:09:42;;;;;;;4.40;2.75;;;;;;;;;;5112575;27;20386;-72
2022/05/31 12:12:22;;;;;;;4.38;3.03;;;;;;;;;;5101632;27;20043;-75
2022/05/31 12:14:54;;;;;;;4.18;2.67;;;;;;;;;;5122163;27;20398;-71
2022/05/31 12:17:31;;;;;;;6.05;3.50;;;;;;;;;;5116722;27;20023;-72
2022/05/31 12:20:04;;;;;;;5.28;3.22;;;;;;;;;;5119780;27;20136;-76
2022/05/31 12:22:42;;;;;;;6.55;3.58;;;;;;;;;;5122296;27;20489;-72
2022/05/31 12:25:18;;;;;;;5.10;3.15;;;;;;;;;;5116016;27;20027;-76
2022/05/31 12:27:49;;;;;;;7.05;3.38;;;;;;;;;;5120457;27;20029;-72
2022/05/31 12:30:20;;;;;;;6.07;3.28;;;;;;;;;;5129142;27;20026;-75
2022/05/31 12:32:49;;;;;;;9.32;3.72;;;;;;;;;;5109483;27;20042;-72
2022/05/31 12:35:29;;;;;;;6.95;3.92;;;;;;;;;;5118545;27;20122;-72
2022/05/31 12:38:01;;;;;;;4.85;3.30;;;;;;;;;;5104179;27;20115;-71
2022/05/31 12:40:32;;;;;;;5.53;3.78;;;;;;;;;;5118645;27;20487;-72
2022/05/31 12:42:58;;;;;;;5.22;3.67;;;;;;;;;;5112918;27;20023;-75
2022/05/31 12:45:32;;;;;;;5.82;3.08;;;;;;;;;;5121774;27;20051;-74
2022/05/31 12:48:09;;;;;;;4.60;2.70;;;;;;;;;;5116279;27;20113;-75
2022/05/31 12:50:46;;;;;;;4.45;2.95;;;;;;;;;;5123857;27;20380;-75
2022/05/31 12:53:22;;;;;;;5.50;3.00;;;;;;;;;;5121822;27;20076;-71
2022/05/31 12:55:47;;;;;;;7.03;3.63;;;;;;;;;;5125830;27;20035;-75
2022/05/31 12:58:28;;;;;;;5.68;3.80;;;;;;;;;;5118177;27;20051;-72
2022/05/31 13:00:59;;;;;;;6.43;3.88;;;;;;;;;;5123265;27;20584;-72
2022/05/31 13:03:33;;;;;;;7.32;4.10;;;;;;;;;;5118296;27;20070;-75
2022/05/31 13:06:09;;;;;;;6.78;4.65;;;;;;;;;;5105091;28;20039;-72
2022/05/31 13:08:59;;;;;;;7.40;4.75;;;;;;;;;;5113176;27;20019;-75
2022/05/31 13:20:28;;;;;;;5.32;3.72;;;;;;;;;;5113335;27;20453;-72
2022/05/31 13:23:09;;;;;;;5.78;3.92;;;;;;;;;;5112028;27;20421;-72
2022/05/31 13:25:45;;;;;;;6.10;3.60;;;;;;;;;;5116432;27;20047;-75
2022/05/31 13:28:27;;;;;;;6.15;3.88;;;;;;;;;;5109754;27;20068;-76
2022/05/31 13:30:58;;;;;;;6.65;3.42;;;;;;;;;;5113484;27;20454;-75
2022/05/31 13:33:24;;;;;;;4.28;3.17;;;;;;;;;;5101297;28;20058;-73
2022/05/31 13:36:08;;;;;;;4.57;3.10;;;;;;;;;;5118138;27;20030;-72
2022/05/31 13:38:36;;;;;;;5.90;3.38;;;;;;;;;;5111443;28;20043;-75
2022/05/31 13:41:06;;;;;;;4.55;3.13;;;;;;;;;;5106800;28;20406;-72
2022/05/31 13:43:38;;;;;;;3.60;2.60;;;;;;;;;;5113843;28;20574;-74
2022/05/31 13:46:16;;;;;;;3.15;2.35;;;;;;;;;;5114632;28;20105;-76
2022/05/31 13:48:48;;;;;;;3.65;2.40;;;;;;;;;;5117866;28;20027;-75
2022/05/31 13:51:20;;;;;;;4.93;2.80;;;;;;;;;;5110853;28;20372;-76
2022/05/31 13:53:46;;;;;;;4.30;2.93;;;;;;;;;;5119237;27;20031;-76
2022/05/31 13:56:17;;;;;;;5.53;3.30;;;;;;;;;;5113295;28;20597;-73
2022/05/31 13:58:43;;;;;;;5.65;3.10;;;;;;;;;;5096462;28;20043;-73
2022/05/31 14:01:30;;;;;;;3.70;2.47;;;;;;;;;;5113790;28;20023;-74
2022/05/31 14:03:59;;;;;;;4.25;2.30;;;;;;;;;;5115801;27;20026;-74
2022/05/31 14:06:30;;;;;;;3.10;2.30;;;;;;;;;;5122814;27;20031;-74
2022/05/31 14:08:57;;;;;;;3.30;2.50;;;;;;;;;;5115849;27;20513;-76
2022/05/31 14:11:31;;;;;;;3.90;2.70;;;;;;;;;;5112454;27;20035;-75
2022/05/31 14:14:01;;;;;;;3.80;2.70;;;;;;;;;;5096898;27;20030;-76
2022/05/31 14:16:41;;;;;;;4.53;2.85;;;;;;;;;;5100819;27;20040;-75
2022/05/31 14:19:19;;;;;;;5.22;2.50;;;;;;;;;;5123802;27;20038;-75
2022/05/31 14:21:47;;;;;;;4.68;2.92;;;;;;;;;;5097564;27;20042;-74
2022/05/31 14:24:15;;;;;;;3.47;2.20;;;;;;;;;;5100206;27;20023;-73
2022/05/31 14:26:42;;;;;;;3.45;2.28;;;;;;;;;;5123824;27;20092;-76
2022/05/31 14:29:17;;;;;;;3.50;2.30;;;;;;;;;;5127315;27;20359;-76
2022/05/31 14:32:02;;;;;;;3.70;2.28;;;;;;;;;;5101693;27;20030;-73
2022/05/31 14:34:41;;;;;;;3.25;2.50;;;;;;;;;;5112825;27;20062;-76
2022/05/31 14:37:10;;;;;;;3.72;2.47;;;;;;;;;;5117266;27;20653;-75
2022/05/31 14:39:47;;;;;;;3.13;2.30;;;;;;;;;;5099725;27;20035;-74
2022/05/31 14:42:24;;;;;;;3.70;2.45;;;;;;;;;;5117713;27;20022;-73
2022/05/31 14:44:52;;;;;;;3.63;2.60;;;;;;;;;;5120369;27;20035;-75
2022/05/31 14:47:20;;;;;;;4.20;3.00;;;;;;;;;;5115385;27;20518;-73
2022/05/31 14:49:49;;;;;;;4.00;2.40;;;;;;;;;;5116132;27;20036;-73
2022/05/31 14:52:52;;;;;;;3.20;2.40;;;;;;;;;;5127496;27;20059;-75
2022/05/31 14:55:20;;;;;;;3.05;2.08;;;;;;;;;;5085360;27;20035;-76
2022/05/31 15:00:38;;;;;;;3.33;2.05;;;;;;;;;;5113865;27;20062;-75
2022/05/31 15:03:28;;;;;;;3.55;1.98;;;;;;;;;;5116117;27;20037;-73
2022/05/31 15:06:09;;;;;;;3.17;1.90;;;;;;;;;;5120701;27;20030;-75
2022/05/31 15:08:37;;;;;;;3.40;1.83;;;;;;;;;;5118069;27;20554;-76
2022/05/31 15:19:40;;;;;;;2.42;1.60;;;;;;;;;;5113071;27;20035;-73
2022/05/31 15:22:06;;;;;;;2.42;1.70;;;;;;;;;;5113473;27;20028;-75
2022/05/31 15:24:46;;;;;;;2.60;1.70;;;;;;;;;;5104110;27;20026;-76
2022/05/31 15:27:21;;;;;;;2.25;1.60;;;;;;;;;;5122146;27;20140;-73
2022/05/31 15:29:48;;;;;;;3.20;1.58;;;;;;;;;;5120310;27;20031;-73
2022/05/31 15:32:13;;;;;;;4.63;1.98;;;;;;;;;;5124211;27;20038;-76
2022/05/31 15:34:39;;;;;;;3.15;1.60;;;;;;;;;;5101135;27;20047;-76
2022/05/31 15:37:06;;;;;;;3.33;1.90;;;;;;;;;;5116425;27;20031;-76
2022/05/31 15:39:33;;;;;;;3.35;1.80;;;;;;;;;;5114254;27;20034;-76
2022/05/31 15:41:58;;;;;;;2.15;1.75;;;;;;;;;;5109512;27;20023;-76
2022/05/31 15:44:24;;;;;;;2.20;1.80;;;;;;;;;;5122268;27;20398;-76
2022/05/31 15:46:50;;;;;;;3.08;1.70;;;;;;;;;;5106088;27;20031;-75
2022/05/31 15:49:15;;;;;;;3.50;2.10;;;;;;;;;;5100931;27;20034;-73
2022/05/31 15:51:46;;;;;;;2.97;1.92;;;;;;;;;;5120112;27;20612;-74